Weather Station Data

Station Data Captured at Five Minute Intervals Since Midnight Local Time


Date Time Temp. RH % Dew Pt. Wind Speed Wind Dir. Peak Wind Wind Chill Pressure Precip. Solar W/m2 ET
1/19/20 10:45a 17.6 77 11.6 3.0 WSW 8.0 13.0 30.236 0.00 109 0.000
1/19/20 10:40a 17.4 76 11.1 6.0 W 13.0 8.8 30.234 0.00 114 0.000
1/19/20 10:35a 17.5 76 11.2 6.0 W 14.0 9.0 30.233 0.00 110 0.000
1/19/20 10:30a 17.7 76 11.4 7.0 WNW 13.0 8.3 30.228 0.00 128 0.000
1/19/20 10:25a 17.9 77 11.9 4.0 W 9.0 11.8 30.227 0.00 118 0.000
1/19/20 10:20a 17.9 77 11.9 5.0 W 14.0 10.5 30.222 0.00 155 0.000
1/19/20 10:15a 17.8 78 12.1 5.0 W 11.0 10.4 30.222 0.00 173 0.000
1/19/20 10:10a 17.5 79 12.1 4.0 WSW 11.0 11.3 30.218 0.00 198 0.000
1/19/20 10:05a 17.0 79 11.6 3.0 W 8.0 12.3 30.219 0.00 168 0.000
1/19/20 10:00a 16.7 79 11.3 6.0 WNW 13.0 8.0 30.219 0.00 128 0.001
1/19/20 9:55a 16.6 79 11.2 6.0 WNW 12.0 7.9 30.215 0.00 119 0.000
1/19/20 9:50a 16.5 79 11.1 6.0 WNW 13.0 7.8 30.214 0.00 99 0.000
1/19/20 9:45a 16.5 79 11.1 8.0 WNW 14.0 6.0 30.214 0.00 97 0.000
1/19/20 9:40a 16.5 79 11.1 8.0 WNW 14.0 6.0 30.212 0.00 116 0.000
1/19/20 9:35a 16.4 79 11.0 6.0 WNW 11.0 7.7 30.214 0.00 107 0.000
1/19/20 9:30a 16.4 79 11.0 7.0 WNW 12.0 6.7 30.215 0.00 104 0.000
1/19/20 9:25a 16.4 80 11.3 6.0 WNW 11.0 7.7 30.210 0.00 105 0.000
1/19/20 9:20a 16.2 80 11.1 8.0 WNW 14.0 5.6 30.208 0.00 81 0.000
1/19/20 9:15a 16.2 80 11.1 8.0 WNW 13.0 5.6 30.207 0.00 76 0.000
1/19/20 9:10a 16.4 79 11.0 6.0 WNW 13.0 7.7 30.206 0.00 56 0.000
1/19/20 9:05a 16.6 79 11.2 9.0 WNW 16.0 5.3 30.201 0.00 49 0.000
1/19/20 9:00a 17.1 80 12.0 6.0 WNW 10.0 8.5 30.198 0.00 46 0.001
1/19/20 8:55a 17.3 80 12.2 7.0 WNW 14.0 7.8 30.197 0.00 34 0.000
1/19/20 8:50a 17.5 79 12.1 7.0 W 16.0 8.0 30.197 0.00 28 0.000
1/19/20 8:45a 17.9 79 12.5 6.0 W 12.0 9.4 30.189 0.00 26 0.000
1/19/20 8:40a 18.2 79 12.8 5.0 W 12.0 10.9 30.185 0.00 13 0.000
1/19/20 8:35a 18.3 78 12.6 7.0 W 13.0 9.0 30.181 0.00 9 0.000
1/19/20 8:30a 18.6 78 12.9 6.0 W 11.0 10.3 30.181 0.00 5 0.000
1/19/20 8:25a 18.8 77 12.8 6.0 WSW 12.0 10.5 30.173 0.00 3 0.000
1/19/20 8:20a 19.0 77 13.0 7.0 W 13.0 9.8 30.173 0.00 3 0.000
1/19/20 8:15a 19.1 76 12.8 5.0 W 12.0 11.9 30.173 0.00 4 0.000
1/19/20 8:10a 19.3 76 13.0 4.0 W 9.0 13.4 30.167 0.00 0 0.000
1/19/20 8:05a 19.5 76 13.2 4.0 WSW 14.0 13.6 30.165 0.00 0 0.000
1/19/20 8:00a 19.8 76 13.5 5.0 WSW 11.0 12.7 30.161 0.00 0 0.001
1/19/20 7:55a 20.0 76 13.6 4.0 W 10.0 14.2 30.157 0.00 0 0.000
1/19/20 7:50a 20.2 77 14.1 4.0 W 12.0 14.4 30.154 0.00 0 0.000
1/19/20 7:45a 20.2 77 14.1 4.0 W 8.0 14.4 30.154 0.00 0 0.000
1/19/20 7:40a 20.2 76 13.8 4.0 W 7.0 14.4 30.149 0.00 0 0.000
1/19/20 7:35a 20.2 76 13.8 4.0 WNW 8.0 14.4 30.148 0.00 0 0.000
1/19/20 7:30a 20.1 76 13.7 3.0 W 10.0 15.9 30.146 0.00 0 0.000
1/19/20 7:25a 20.0 75 13.3 5.0 W 10.0 13.0 30.144 0.00 0 0.000
1/19/20 7:20a 20.1 75 13.4 5.0 W 10.0 13.1 30.144 0.00 0 0.000
1/19/20 7:15a 20.2 75 13.5 3.0 W 15.0 16.0 30.145 0.00 0 0.000
1/19/20 7:10a 20.1 75 13.4 4.0 WNW 9.0 14.3 30.143 0.00 0 0.000
1/19/20 7:05a 20.1 75 13.4 4.0 W 10.0 14.3 30.141 0.00 0 0.000
1/19/20 7:00a 20.1 74 13.1 4.0 WSW 11.0 14.3 30.138 0.00 0 0.001
1/19/20 6:55a 20.2 74 13.2 3.0 WSW 9.0 16.0 30.137 0.00 0 0.000
1/19/20 6:50a 20.2 74 13.2 3.0 W 9.0 16.0 30.136 0.00 0 0.000
1/19/20 6:45a 20.1 73 12.8 4.0 W 10.0 14.3 30.135 0.00 0 0.000
1/19/20 6:40a 20.1 73 12.8 5.0 W 11.0 13.1 30.133 0.00 0 0.000
1/19/20 6:35a 20.1 73 12.8 6.0 W 13.0 12.1 30.132 0.00 0 0.000
1/19/20 6:30a 20.1 73 12.8 5.0 W 10.0 13.1 30.126 0.00 0 0.000
1/19/20 6:25a 20.0 72 12.4 6.0 W 15.0 11.9 30.125 0.00 0 0.000
1/19/20 6:20a 20.1 72 12.5 7.0 W 15.0 11.2 30.123 0.00 0 0.000
1/19/20 6:15a 20.1 72 12.5 8.0 W 17.0 10.4 30.123 0.00 0 0.000
1/19/20 6:10a 20.1 72 12.5 8.0 WNW 14.0 10.4 30.120 0.00 0 0.000
1/19/20 6:05a 20.2 71 12.3 9.0 WNW 24.0 9.8 30.119 0.00 0 0.000
1/19/20 6:00a 20.4 71 12.5 8.0 WNW 14.0 10.7 30.115 0.00 0 0.001
1/19/20 5:55a 20.4 71 12.5 7.0 W 13.0 11.5 30.112 0.00 0 0.000
1/19/20 5:50a 20.6 72 13.0 7.0 WNW 16.0 11.8 30.112 0.00 0 0.000
1/19/20 5:45a 20.7 71 12.8 10.0 WNW 18.0 9.7 30.111 0.00 0 0.000
1/19/20 5:40a 21.0 71 13.1 7.0 WNW 15.0 12.2 30.109 0.00 0 0.000
1/19/20 5:35a 21.0 71 13.1 6.0 W 12.0 13.1 30.106 0.00 0 0.000
1/19/20 5:30a 21.0 71 13.1 9.0 W 17.0 10.7 30.105 0.00 0 0.000
1/19/20 5:25a 21.2 71 13.3 8.0 W 20.0 11.7 30.104 0.00 0 0.000
1/19/20 5:20a 21.3 71 13.4 8.0 W 16.0 11.8 30.102 0.00 0 0.000
1/19/20 5:15a 21.6 71 13.6 7.0 W 16.0 13.0 30.099 0.00 0 0.000
1/19/20 5:10a 21.8 71 13.8 6.0 W 12.0 14.1 30.098 0.00 0 0.000
1/19/20 5:05a 21.9 71 13.9 7.0 WNW 15.0 13.3 30.096 0.00 0 0.000
1/19/20 5:00a 22.0 70 13.7 7.0 W 15.0 13.4 30.090 0.00 0 0.001
1/19/20 4:55a 22.1 70 13.8 8.0 W 15.0 12.8 30.092 0.00 0 0.000
1/19/20 4:50a 22.3 70 14.0 8.0 W 18.0 13.0 30.088 0.00 0 0.000
1/19/20 4:45a 22.5 71 14.5 9.0 WNW 20.0 12.6 30.087 0.00 0 0.000
1/19/20 4:40a 22.9 71 14.9 10.0 W 20.0 12.4 30.087 0.00 0 0.000
1/19/20 4:35a 23.3 71 15.3 7.0 W 16.0 15.0 30.086 0.00 0 0.000
1/19/20 4:30a 23.4 70 15.1 7.0 W 17.0 15.1 30.075 0.00 0 0.000
1/19/20 4:25a 23.4 70 15.1 6.0 WSW 16.0 16.0 30.075 0.00 0 0.000
1/19/20 4:20a 23.4 69 14.7 8.0 W 18.0 14.4 30.074 0.00 0 0.000
1/19/20 4:15a 23.7 68 14.7 9.0 W 17.0 14.1 30.067 0.00 0 0.000
1/19/20 4:10a 24.0 69 15.3 7.0 WSW 15.0 15.9 30.064 0.00 0 0.000
1/19/20 4:05a 24.4 70 16.0 6.0 WSW 13.0 17.2 30.059 0.00 0 0.000
1/19/20 4:00a 24.6 69 15.9 6.0 WSW 12.0 17.4 30.060 0.00 0 0.001
1/19/20 3:55a 24.8 70 16.4 7.0 WSW 18.0 16.8 30.058 0.00 0 0.000
1/19/20 3:50a 24.9 69 16.2 7.0 WSW 24.0 16.9 30.056 0.00 0 0.000
1/19/20 3:45a 25.1 69 16.4 9.0 WSW 24.0 15.8 30.050 0.00 0 0.000
1/19/20 3:40a 25.3 69 16.5 10.0 WSW 20.0 15.4 30.047 0.00 0 0.000
1/19/20 3:35a 25.8 74 18.7 8.0 WSW 19.0 17.3 30.045 0.00 0 0.000
1/19/20 3:30a 25.9 75 19.1 4.0 W 14.0 21.0 30.042 0.00 0 0.000
1/19/20 3:25a 25.8 75 19.0 5.0 WSW 11.0 19.8 30.044 0.00 0 0.000
1/19/20 3:20a 25.8 75 19.0 6.0 W 14.0 18.8 30.044 0.00 0 0.000
1/19/20 3:15a 25.8 74 18.7 5.0 WSW 12.0 19.8 30.043 0.00 0 0.000
1/19/20 3:10a 25.8 74 18.7 5.0 W 11.0 19.8 30.044 0.00 0 0.000
1/19/20 3:05a 25.8 74 18.7 4.0 W 10.0 20.9 30.043 0.00 0 0.000
1/19/20 3:00a 25.8 74 18.7 5.0 W 11.0 19.8 30.042 0.00 0 0.001
1/19/20 2:55a 25.7 73 18.2 5.0 W 13.0 19.7 30.043 0.00 0 0.000
1/19/20 2:50a 25.7 73 18.2 5.0 W 11.0 19.7 30.044 0.00 0 0.000
1/19/20 2:45a 25.7 73 18.2 6.0 W 10.0 18.7 30.042 0.00 0 0.000
1/19/20 2:40a 25.7 73 18.2 6.0 WSW 13.0 18.7 30.038 0.00 0 0.000
1/19/20 2:35a 25.8 72 18.0 7.0 WSW 17.0 18.0 30.041 0.00 0 0.000
1/19/20 2:30a 26.0 72 18.2 6.0 WSW 13.0 19.1 30.042 0.00 0 0.000
1/19/20 2:25a 26.2 73 18.7 6.0 W 14.0 19.3 30.040 0.00 0 0.000
1/19/20 2:20a 26.3 73 18.8 5.0 W 11.0 20.4 30.037 0.00 0 0.000
1/19/20 2:15a 26.3 73 18.8 7.0 WSW 17.0 18.6 30.035 0.00 0 0.000
1/19/20 2:10a 26.5 73 19.0 7.0 WSW 20.0 18.9 30.030 0.00 0 0.000
1/19/20 2:05a 26.6 73 19.1 7.0 WSW 22.0 19.0 30.028 0.00 0 0.000
1/19/20 2:00a 26.8 74 19.6 7.0 WSW 17.0 19.2 30.029 0.00 0 0.001
1/19/20 1:55a 27.0 75 20.1 6.0 SSW 18.0 20.3 30.030 0.00 0 0.000
1/19/20 1:50a 27.1 74 19.9 8.0 WSW 21.0 18.9 30.027 0.00 0 0.000
1/19/20 1:45a 27.4 74 20.2 7.0 W 21.0 20.0 30.027 0.00 0 0.000
1/19/20 1:40a 27.6 74 20.4 6.0 WSW 13.0 21.0 30.027 0.00 0 0.000
1/19/20 1:35a 27.8 75 20.9 5.0 WSW 14.0 22.1 30.027 0.00 0 0.000
1/19/20 1:30a 27.8 75 20.9 6.0 W 12.0 21.2 30.028 0.00 0 0.000
1/19/20 1:25a 27.9 74 20.7 7.0 WSW 18.0 20.6 30.027 0.00 0 0.000
1/19/20 1:20a 28.0 75 21.1 6.0 WSW 16.0 21.5 30.026 0.00 0 0.000
1/19/20 1:15a 28.0 75 21.1 6.0 W 12.0 21.5 30.027 0.00 0 0.000
1/19/20 1:10a 28.1 75 21.2 5.0 WSW 12.0 22.5 30.022 0.00 0 0.000
1/19/20 1:05a 28.2 75 21.3 7.0 WSW 17.0 20.9 30.024 0.00 0 0.000
1/19/20 1:00a 28.4 75 21.5 5.0 SW 15.0 22.8 30.019 0.00 0 0.001
1/19/20 12:55a 28.5 75 21.6 5.0 SW 10.0 23.0 30.020 0.00 0 0.000
1/19/20 12:50a 28.8 76 22.2 6.0 WSW 17.0 22.4 30.018 0.00 0 0.000
1/19/20 12:45a 29.0 76 22.4 6.0 WSW 12.0 22.7 30.014 0.00 0 0.000
1/19/20 12:40a 29.1 76 22.5 7.0 WSW 15.0 22.0 30.018 0.00 0 0.000
1/19/20 12:35a 29.3 76 22.7 6.0 WSW 12.0 23.0 30.017 0.00 0 0.000
1/19/20 12:30a 29.5 76 22.9 4.0 WSW 10.0 25.2 30.014 0.00 0 0.000
1/19/20 12:25a 29.5 76 22.9 6.0 W 11.0 23.3 30.012 0.00 0 0.000
1/19/20 12:20a 29.5 76 22.9 6.0 W 12.0 23.3 30.011 0.00 0 0.000
1/19/20 12:15a 29.6 75 22.6 7.0 W 14.0 22.6 30.009 0.00 0 0.000
1/19/20 12:10a 29.7 75 22.7 6.0 W 15.0 23.5 30.007 0.00 0 0.000
1/19/20 12:05a 29.7 75 22.7 7.0 W 13.0 22.7 30.001 0.00 0 0.000
1/19/20 12:00a 29.9 75 22.9 8.0 W 17.0 22.3 30.003 0.00 0 0.001

13,209 Page Views